sensor_id;sensor_type;location;lat;lon;timestamp;P1;durP1;ratioP1;P2;durP2;ratioP2
35646;SDS011;28680;45.642;13.756;2022-12-07T00:09:51;5.63;;;3.70;;
35646;SDS011;28680;45.642;13.756;2022-12-07T00:12:17;7.93;;;3.35;;
35646;SDS011;28680;45.642;13.756;2022-12-07T00:14:42;5.80;;;3.95;;
35646;SDS011;28680;45.642;13.756;2022-12-07T00:17:08;6.68;;;4.00;;
35646;SDS011;28680;45.642;13.756;2022-12-07T00:19:34;7.43;;;3.40;;
35646;SDS011;28680;45.642;13.756;2022-12-07T00:22:00;5.50;;;3.30;;
35646;SDS011;28680;45.642;13.756;2022-12-07T00:24:26;5.93;;;3.20;;
35646;SDS011;28680;45.642;13.756;2022-12-07T00:26:52;8.02;;;3.70;;
35646;SDS011;28680;45.642;13.756;2022-12-07T00:29:18;6.60;;;3.67;;
35646;SDS011;28680;45.642;13.756;2022-12-07T00:31:46;5.32;;;3.53;;
35646;SDS011;28680;45.642;13.756;2022-12-07T00:34:19;6.07;;;3.80;;
35646;SDS011;28680;45.642;13.756;2022-12-07T00:36:46;5.55;;;3.90;;
35646;SDS011;28680;45.642;13.756;2022-12-07T00:39:12;5.10;;;3.35;;
35646;SDS011;28680;45.642;13.756;2022-12-07T00:41:39;5.80;;;3.75;;
35646;SDS011;28680;45.642;13.756;2022-12-07T00:44:05;7.03;;;4.10;;
35646;SDS011;28680;45.642;13.756;2022-12-07T00:46:31;6.97;;;3.83;;
35646;SDS011;28680;45.642;13.756;2022-12-07T00:48:57;6.07;;;3.72;;
35646;SDS011;28680;45.642;13.756;2022-12-07T00:51:23;5.93;;;3.80;;
35646;SDS011;28680;45.642;13.756;2022-12-07T00:53:50;6.10;;;3.90;;
35646;SDS011;28680;45.642;13.756;2022-12-07T00:56:18;6.38;;;3.80;;
35646;SDS011;28680;45.642;13.756;2022-12-07T00:58:54;6.90;;;4.20;;
35646;SDS011;28680;45.642;13.756;2022-12-07T01:01:23;6.00;;;3.72;;
35646;SDS011;28680;45.642;13.756;2022-12-07T01:03:52;5.75;;;3.60;;
35646;SDS011;28680;45.642;13.756;2022-12-07T01:06:19;6.05;;;4.05;;
35646;SDS011;28680;45.642;13.756;2022-12-07T01:08:47;8.20;;;3.83;;
35646;SDS011;28680;45.642;13.756;2022-12-07T01:11:15;8.98;;;3.90;;
35646;SDS011;28680;45.642;13.756;2022-12-07T01:13:44;6.72;;;4.07;;
35646;SDS011;28680;45.642;13.756;2022-12-07T01:16:11;7.50;;;4.05;;
35646;SDS011;28680;45.642;13.756;2022-12-07T01:18:40;7.05;;;4.07;;
35646;SDS011;28680;45.642;13.756;2022-12-07T01:21:09;7.07;;;3.42;;
35646;SDS011;28680;45.642;13.756;2022-12-07T01:23:37;6.38;;;4.00;;
35646;SDS011;28680;45.642;13.756;2022-12-07T01:26:05;5.40;;;3.75;;
35646;SDS011;28680;45.642;13.756;2022-12-07T01:28:36;7.13;;;4.15;;
35646;SDS011;28680;45.642;13.756;2022-12-07T01:31:03;5.88;;;4.00;;
35646;SDS011;28680;45.642;13.756;2022-12-07T01:33:38;6.07;;;3.83;;
35646;SDS011;28680;45.642;13.756;2022-12-07T01:36:08;7.50;;;4.40;;
35646;SDS011;28680;45.642;13.756;2022-12-07T01:38:46;6.03;;;3.80;;
35646;SDS011;28680;45.642;13.756;2022-12-07T01:41:16;6.05;;;4.13;;
35646;SDS011;28680;45.642;13.756;2022-12-07T01:46:53;6.43;;;3.80;;
35646;SDS011;28680;45.642;13.756;2022-12-07T01:49:31;8.40;;;4.07;;
35646;SDS011;28680;45.642;13.756;2022-12-07T01:55:02;5.88;;;3.72;;
35646;SDS011;28680;45.642;13.756;2022-12-07T01:57:32;8.52;;;4.07;;
35646;SDS011;28680;45.642;13.756;2022-12-07T02:00:05;6.25;;;3.80;;
35646;SDS011;28680;45.642;13.756;2022-12-07T02:02:34;5.75;;;3.85;;
35646;SDS011;28680;45.642;13.756;2022-12-07T02:05:25;5.72;;;3.40;;
35646;SDS011;28680;45.642;13.756;2022-12-07T02:07:52;5.40;;;3.80;;
35646;SDS011;28680;45.642;13.756;2022-12-07T02:10:25;5.25;;;3.13;;
35646;SDS011;28680;45.642;13.756;2022-12-07T02:12:57;5.45;;;3.58;;
35646;SDS011;28680;45.642;13.756;2022-12-07T02:15:41;5.53;;;3.50;;
35646;SDS011;28680;45.642;13.756;2022-12-07T02:18:30;7.63;;;3.90;;
35646;SDS011;28680;45.642;13.756;2022-12-07T02:29:57;5.45;;;3.67;;
35646;SDS011;28680;45.642;13.756;2022-12-07T02:35:40;7.15;;;3.53;;
35646;SDS011;28680;45.642;13.756;2022-12-07T02:41:16;5.68;;;3.70;;
35646;SDS011;28680;45.642;13.756;2022-12-07T02:43:59;5.25;;;3.67;;
35646;SDS011;28680;45.642;13.756;2022-12-07T02:46:41;4.72;;;3.30;;
35646;SDS011;28680;45.642;13.756;2022-12-07T02:49:12;6.43;;;4.43;;
35646;SDS011;28680;45.642;13.756;2022-12-07T02:51:39;5.13;;;3.78;;
35646;SDS011;28680;45.642;13.756;2022-12-07T02:54:15;7.22;;;4.05;;
35646;SDS011;28680;45.642;13.756;2022-12-07T03:11:09;5.32;;;3.22;;
35646;SDS011;28680;45.642;13.756;2022-12-07T03:16:50;5.10;;;3.40;;
35646;SDS011;28680;45.642;13.756;2022-12-07T03:19:39;3.97;;;2.95;;
35646;SDS011;28680;45.642;13.756;2022-12-07T03:22:08;6.35;;;3.30;;
35646;SDS011;28680;45.642;13.756;2022-12-07T03:24:40;4.05;;;2.45;;
35646;SDS011;28680;45.642;13.756;2022-12-07T03:30:29;4.22;;;2.60;;
35646;SDS011;28680;45.642;13.756;2022-12-07T03:33:06;4.45;;;2.50;;
35646;SDS011;28680;45.642;13.756;2022-12-07T03:36:27;4.70;;;2.80;;
35646;SDS011;28680;45.642;13.756;2022-12-07T03:39:03;3.63;;;2.47;;
35646;SDS011;28680;45.642;13.756;2022-12-07T03:42:14;5.75;;;2.80;;
35646;SDS011;28680;45.642;13.756;2022-12-07T03:44:41;4.40;;;2.88;;
35646;SDS011;28680;45.642;13.756;2022-12-07T03:50:10;3.88;;;2.72;;
35646;SDS011;28680;45.642;13.756;2022-12-07T03:53:04;5.38;;;2.88;;
35646;SDS011;28680;45.642;13.756;2022-12-07T03:55:41;4.75;;;3.15;;
35646;SDS011;28680;45.642;13.756;2022-12-07T03:58:11;5.18;;;3.15;;
35646;SDS011;28680;45.642;13.756;2022-12-07T04:00:42;6.70;;;2.97;;
35646;SDS011;28680;45.642;13.756;2022-12-07T04:03:09;5.63;;;3.10;;
35646;SDS011;28680;45.642;13.756;2022-12-07T04:05:35;6.80;;;3.28;;
35646;SDS011;28680;45.642;13.756;2022-12-07T04:08:03;4.78;;;3.00;;
35646;SDS011;28680;45.642;13.756;2022-12-07T04:10:29;4.45;;;2.88;;
35646;SDS011;28680;45.642;13.756;2022-12-07T04:12:55;4.50;;;3.17;;
35646;SDS011;28680;45.642;13.756;2022-12-07T04:15:21;4.82;;;3.33;;
35646;SDS011;28680;45.642;13.756;2022-12-07T04:17:47;4.38;;;2.88;;
35646;SDS011;28680;45.642;13.756;2022-12-07T04:20:13;7.00;;;3.28;;
35646;SDS011;28680;45.642;13.756;2022-12-07T04:22:40;4.75;;;3.10;;
35646;SDS011;28680;45.642;13.756;2022-12-07T04:25:06;5.15;;;3.08;;
35646;SDS011;28680;45.642;13.756;2022-12-07T04:27:32;5.57;;;3.08;;
35646;SDS011;28680;45.642;13.756;2022-12-07T04:29:58;6.63;;;3.28;;
35646;SDS011;28680;45.642;13.756;2022-12-07T04:32:24;6.10;;;3.20;;
35646;SDS011;28680;45.642;13.756;2022-12-07T04:34:49;5.25;;;3.53;;
35646;SDS011;28680;45.642;13.756;2022-12-07T04:37:16;5.53;;;3.55;;
35646;SDS011;28680;45.642;13.756;2022-12-07T04:39:42;5.20;;;3.30;;
35646;SDS011;28680;45.642;13.756;2022-12-07T04:42:09;5.75;;;3.17;;
35646;SDS011;28680;45.642;13.756;2022-12-07T04:44:37;4.82;;;2.65;;
35646;SDS011;28680;45.642;13.756;2022-12-07T04:47:04;3.90;;;2.95;;
35646;SDS011;28680;45.642;13.756;2022-12-07T04:49:30;4.63;;;3.05;;
35646;SDS011;28680;45.642;13.756;2022-12-07T04:51:56;5.40;;;3.55;;
35646;SDS011;28680;45.642;13.756;2022-12-07T04:54:22;6.82;;;3.10;;
35646;SDS011;28680;45.642;13.756;2022-12-07T04:56:48;6.85;;;3.22;;
35646;SDS011;28680;45.642;13.756;2022-12-07T04:59:14;6.55;;;3.50;;
35646;SDS011;28680;45.642;13.756;2022-12-07T05:01:41;4.93;;;3.03;;
35646;SDS011;28680;45.642;13.756;2022-12-07T05:04:08;5.20;;;3.17;;
35646;SDS011;28680;45.642;13.756;2022-12-07T05:06:34;5.13;;;3.20;;
35646;SDS011;28680;45.642;13.756;2022-12-07T05:09:00;4.72;;;3.33;;
35646;SDS011;28680;45.642;13.756;2022-12-07T05:11:27;6.18;;;3.53;;
35646;SDS011;28680;45.642;13.756;2022-12-07T05:14:13;5.72;;;3.40;;
35646;SDS011;28680;45.642;13.756;2022-12-07T05:16:43;4.50;;;3.03;;
35646;SDS011;28680;45.642;13.756;2022-12-07T05:19:11;5.47;;;3.13;;
35646;SDS011;28680;45.642;13.756;2022-12-07T05:21:37;5.82;;;3.03;;
35646;SDS011;28680;45.642;13.756;2022-12-07T05:24:04;5.68;;;3.00;;
35646;SDS011;28680;45.642;13.756;2022-12-07T05:26:31;5.43;;;3.28;;
35646;SDS011;28680;45.642;13.756;2022-12-07T05:28:57;7.07;;;4.10;;
35646;SDS011;28680;45.642;13.756;2022-12-07T05:31:25;4.35;;;3.10;;
35646;SDS011;28680;45.642;13.756;2022-12-07T05:33:51;4.82;;;3.13;;
35646;SDS011;28680;45.642;13.756;2022-12-07T05:36:18;7.28;;;3.75;;
35646;SDS011;28680;45.642;13.756;2022-12-07T05:38:44;6.95;;;3.90;;
35646;SDS011;28680;45.642;13.756;2022-12-07T05:41:11;5.05;;;3.40;;
35646;SDS011;28680;45.642;13.756;2022-12-07T05:44:00;5.18;;;3.25;;
35646;SDS011;28680;45.642;13.756;2022-12-07T05:46:26;5.32;;;3.30;;
35646;SDS011;28680;45.642;13.756;2022-12-07T05:48:52;7.30;;;4.22;;
35646;SDS011;28680;45.642;13.756;2022-12-07T05:51:18;4.88;;;3.38;;
35646;SDS011;28680;45.642;13.756;2022-12-07T05:53:44;6.63;;;3.80;;
35646;SDS011;28680;45.642;13.756;2022-12-07T05:56:10;5.60;;;3.83;;
35646;SDS011;28680;45.642;13.756;2022-12-07T05:58:37;5.50;;;3.10;;
35646;SDS011;28680;45.642;13.756;2022-12-07T06:01:21;5.03;;;3.25;;
35646;SDS011;28680;45.642;13.756;2022-12-07T06:03:47;5.47;;;3.42;;
35646;SDS011;28680;45.642;13.756;2022-12-07T06:06:13;6.05;;;3.60;;
35646;SDS011;28680;45.642;13.756;2022-12-07T06:08:39;5.93;;;3.60;;
35646;SDS011;28680;45.642;13.756;2022-12-07T06:11:04;5.57;;;3.33;;
35646;SDS011;28680;45.642;13.756;2022-12-07T06:13:49;5.30;;;3.67;;
35646;SDS011;28680;45.642;13.756;2022-12-07T06:16:15;6.30;;;3.42;;
35646;SDS011;28680;45.642;13.756;2022-12-07T06:18:40;6.57;;;3.53;;
35646;SDS011;28680;45.642;13.756;2022-12-07T06:21:06;5.55;;;3.65;;
35646;SDS011;28680;45.642;13.756;2022-12-07T06:23:32;4.80;;;3.45;;
35646;SDS011;28680;45.642;13.756;2022-12-07T06:25:58;6.10;;;3.85;;
35646;SDS011;28680;45.642;13.756;2022-12-07T06:28:24;5.65;;;3.53;;
35646;SDS011;28680;45.642;13.756;2022-12-07T06:30:59;8.15;;;4.55;;
35646;SDS011;28680;45.642;13.756;2022-12-07T06:33:27;4.85;;;3.35;;
35646;SDS011;28680;45.642;13.756;2022-12-07T06:35:54;5.75;;;3.20;;
35646;SDS011;28680;45.642;13.756;2022-12-07T06:38:20;7.45;;;3.35;;
35646;SDS011;28680;45.642;13.756;2022-12-07T06:40:46;4.32;;;3.17;;
35646;SDS011;28680;45.642;13.756;2022-12-07T06:43:13;6.60;;;3.88;;
35646;SDS011;28680;45.642;13.756;2022-12-07T06:45:40;5.05;;;3.30;;
35646;SDS011;28680;45.642;13.756;2022-12-07T06:48:07;6.10;;;3.67;;
35646;SDS011;28680;45.642;13.756;2022-12-07T06:50:33;7.68;;;4.55;;
35646;SDS011;28680;45.642;13.756;2022-12-07T06:52:59;7.60;;;4.05;;
35646;SDS011;28680;45.642;13.756;2022-12-07T06:55:27;15.85;;;4.47;;
35646;SDS011;28680;45.642;13.756;2022-12-07T06:57:53;9.52;;;4.80;;
35646;SDS011;28680;45.642;13.756;2022-12-07T07:00:19;5.03;;;3.67;;
35646;SDS011;28680;45.642;13.756;2022-12-07T07:02:45;6.15;;;3.90;;
35646;SDS011;28680;45.642;13.756;2022-12-07T07:05:11;6.28;;;3.90;;
35646;SDS011;28680;45.642;13.756;2022-12-07T07:07:37;7.50;;;4.32;;
35646;SDS011;28680;45.642;13.756;2022-12-07T07:10:03;9.98;;;5.38;;
35646;SDS011;28680;45.642;13.756;2022-12-07T07:12:30;8.60;;;4.00;;
35646;SDS011;28680;45.642;13.756;2022-12-07T07:14:56;6.90;;;3.72;;
35646;SDS011;28680;45.642;13.756;2022-12-07T07:17:22;6.75;;;4.00;;
35646;SDS011;28680;45.642;13.756;2022-12-07T07:19:48;8.63;;;5.00;;
35646;SDS011;28680;45.642;13.756;2022-12-07T07:22:14;5.68;;;3.60;;
35646;SDS011;28680;45.642;13.756;2022-12-07T07:24:39;5.78;;;3.65;;
35646;SDS011;28680;45.642;13.756;2022-12-07T07:27:05;8.88;;;3.90;;
35646;SDS011;28680;45.642;13.756;2022-12-07T07:29:31;7.90;;;3.92;;
35646;SDS011;28680;45.642;13.756;2022-12-07T07:31:58;8.85;;;4.18;;
35646;SDS011;28680;45.642;13.756;2022-12-07T07:34:25;6.57;;;4.00;;
35646;SDS011;28680;45.642;13.756;2022-12-07T07:36:50;6.53;;;3.70;;
35646;SDS011;28680;45.642;13.756;2022-12-07T07:39:16;6.00;;;3.47;;
35646;SDS011;28680;45.642;13.756;2022-12-07T07:41:42;5.25;;;3.20;;
35646;SDS011;28680;45.642;13.756;2022-12-07T07:44:09;6.30;;;3.40;;
35646;SDS011;28680;45.642;13.756;2022-12-07T07:46:35;10.68;;;4.97;;
35646;SDS011;28680;45.642;13.756;2022-12-07T07:49:01;6.60;;;4.22;;
35646;SDS011;28680;45.642;13.756;2022-12-07T07:51:27;4.30;;;3.05;;
35646;SDS011;28680;45.642;13.756;2022-12-07T07:53:52;7.22;;;3.00;;
35646;SDS011;28680;45.642;13.756;2022-12-07T07:56:18;3.70;;;2.63;;
35646;SDS011;28680;45.642;13.756;2022-12-07T07:58:44;5.13;;;2.85;;
35646;SDS011;28680;45.642;13.756;2022-12-07T08:01:10;6.63;;;4.25;;
35646;SDS011;28680;45.642;13.756;2022-12-07T08:03:38;6.07;;;3.22;;
35646;SDS011;28680;45.642;13.756;2022-12-07T08:06:04;6.18;;;3.65;;
35646;SDS011;28680;45.642;13.756;2022-12-07T08:08:31;4.72;;;2.53;;
35646;SDS011;28680;45.642;13.756;2022-12-07T08:10:57;9.48;;;2.90;;
35646;SDS011;28680;45.642;13.756;2022-12-07T08:13:26;4.78;;;2.92;;
35646;SDS011;28680;45.642;13.756;2022-12-07T08:15:52;4.88;;;3.20;;
35646;SDS011;28680;45.642;13.756;2022-12-07T08:18:18;5.70;;;3.35;;
35646;SDS011;28680;45.642;13.756;2022-12-07T08:20:44;4.93;;;3.28;;
35646;SDS011;28680;45.642;13.756;2022-12-07T08:23:10;5.35;;;3.25;;
35646;SDS011;28680;45.642;13.756;2022-12-07T08:25:37;4.93;;;3.10;;
35646;SDS011;28680;45.642;13.756;2022-12-07T08:28:04;4.28;;;2.72;;
35646;SDS011;28680;45.642;13.756;2022-12-07T08:30:30;5.68;;;3.03;;
35646;SDS011;28680;45.642;13.756;2022-12-07T08:32:56;4.40;;;2.70;;
35646;SDS011;28680;45.642;13.756;2022-12-07T08:35:22;4.97;;;2.47;;
35646;SDS011;28680;45.642;13.756;2022-12-07T08:37:49;4.40;;;2.08;;
35646;SDS011;28680;45.642;13.756;2022-12-07T08:40:15;5.38;;;3.17;;
35646;SDS011;28680;45.642;13.756;2022-12-07T08:42:44;3.40;;;2.40;;
35646;SDS011;28680;45.642;13.756;2022-12-07T08:45:19;5.57;;;2.83;;
35646;SDS011;28680;45.642;13.756;2022-12-07T08:47:50;4.25;;;2.40;;
35646;SDS011;28680;45.642;13.756;2022-12-07T08:50:31;3.67;;;2.30;;
35646;SDS011;28680;45.642;13.756;2022-12-07T08:52:58;4.80;;;2.38;;
35646;SDS011;28680;45.642;13.756;2022-12-07T08:55:26;4.63;;;2.28;;
35646;SDS011;28680;45.642;13.756;2022-12-07T08:57:54;3.67;;;2.30;;
35646;SDS011;28680;45.642;13.756;2022-12-07T09:00:20;4.10;;;2.42;;
35646;SDS011;28680;45.642;13.756;2022-12-07T09:02:46;5.53;;;2.63;;
35646;SDS011;28680;45.642;13.756;2022-12-07T09:05:12;5.63;;;2.53;;
35646;SDS011;28680;45.642;13.756;2022-12-07T09:07:40;3.85;;;2.30;;
35646;SDS011;28680;45.642;13.756;2022-12-07T09:10:09;5.80;;;2.75;;
35646;SDS011;28680;45.642;13.756;2022-12-07T09:12:35;5.32;;;2.70;;
35646;SDS011;28680;45.642;13.756;2022-12-07T09:15:01;5.35;;;2.80;;
35646;SDS011;28680;45.642;13.756;2022-12-07T09:17:27;5.75;;;3.72;;
35646;SDS011;28680;45.642;13.756;2022-12-07T09:20:01;3.58;;;2.50;;
35646;SDS011;28680;45.642;13.756;2022-12-07T09:22:32;3.83;;;2.22;;
35646;SDS011;28680;45.642;13.756;2022-12-07T09:24:59;6.68;;;2.67;;
35646;SDS011;28680;45.642;13.756;2022-12-07T09:27:26;6.03;;;2.65;;
35646;SDS011;28680;45.642;13.756;2022-12-07T09:29:53;4.35;;;2.70;;
35646;SDS011;28680;45.642;13.756;2022-12-07T09:32:19;3.40;;;2.20;;
35646;SDS011;28680;45.642;13.756;2022-12-07T09:34:46;3.88;;;2.10;;
35646;SDS011;28680;45.642;13.756;2022-12-07T09:37:12;3.40;;;2.30;;
35646;SDS011;28680;45.642;13.756;2022-12-07T09:39:38;3.10;;;1.92;;
35646;SDS011;28680;45.642;13.756;2022-12-07T09:42:05;3.17;;;2.13;;
35646;SDS011;28680;45.642;13.756;2022-12-07T09:44:33;4.10;;;2.22;;
35646;SDS011;28680;45.642;13.756;2022-12-07T09:47:00;2.90;;;1.70;;
35646;SDS011;28680;45.642;13.756;2022-12-07T09:49:28;3.22;;;1.80;;
35646;SDS011;28680;45.642;13.756;2022-12-07T09:52:16;5.63;;;1.75;;
35646;SDS011;28680;45.642;13.756;2022-12-07T09:54:50;4.10;;;2.00;;
35646;SDS011;28680;45.642;13.756;2022-12-07T09:57:16;2.47;;;1.55;;
35646;SDS011;28680;45.642;13.756;2022-12-07T09:59:46;4.60;;;2.22;;
35646;SDS011;28680;45.642;13.756;2022-12-07T10:02:28;2.38;;;1.63;;
35646;SDS011;28680;45.642;13.756;2022-12-07T10:05:09;3.58;;;1.67;;
35646;SDS011;28680;45.642;13.756;2022-12-07T10:08:00;2.85;;;1.90;;
35646;SDS011;28680;45.642;13.756;2022-12-07T10:10:29;2.35;;;1.52;;
35646;SDS011;28680;45.642;13.756;2022-12-07T10:13:04;3.25;;;1.73;;
35646;SDS011;28680;45.642;13.756;2022-12-07T10:18:26;3.25;;;1.85;;
35646;SDS011;28680;45.642;13.756;2022-12-07T10:23:35;3.95;;;2.40;;
35646;SDS011;28680;45.642;13.756;2022-12-07T10:29:17;5.10;;;2.40;;
35646;SDS011;28680;45.642;13.756;2022-12-07T10:31:58;2.80;;;1.80;;
35646;SDS011;28680;45.642;13.756;2022-12-07T10:34:36;3.20;;;2.03;;
35646;SDS011;28680;45.642;13.756;2022-12-07T10:39:49;3.35;;;1.83;;
35646;SDS011;28680;45.642;13.756;2022-12-07T10:42:25;3.03;;;1.92;;
35646;SDS011;28680;45.642;13.756;2022-12-07T10:47:47;3.03;;;1.80;;
35646;SDS011;28680;45.642;13.756;2022-12-07T11:16:58;3.10;;;2.00;;
35646;SDS011;28680;45.642;13.756;2022-12-07T11:23:04;3.22;;;2.08;;
35646;SDS011;28680;45.642;13.756;2022-12-07T11:31:38;3.67;;;2.53;;
35646;SDS011;28680;45.642;13.756;2022-12-07T11:34:36;3.17;;;1.90;;
35646;SDS011;28680;45.642;13.756;2022-12-07T11:37:31;6.57;;;2.40;;
35646;SDS011;28680;45.642;13.756;2022-12-07T11:43:01;2.45;;;2.00;;
35646;SDS011;28680;45.642;13.756;2022-12-07T11:45:55;5.53;;;2.10;;
35646;SDS011;28680;45.642;13.756;2022-12-07T11:48:36;3.80;;;2.47;;
35646;SDS011;28680;45.642;13.756;2022-12-07T11:51:15;3.10;;;2.03;;
35646;SDS011;28680;45.642;13.756;2022-12-07T11:53:47;3.28;;;2.00;;
35646;SDS011;28680;45.642;13.756;2022-12-07T11:56:20;2.28;;;1.77;;
35646;SDS011;28680;45.642;13.756;2022-12-07T11:58:57;5.22;;;2.50;;
35646;SDS011;28680;45.642;13.756;2022-12-07T12:01:52;3.08;;;1.90;;
35646;SDS011;28680;45.642;13.756;2022-12-07T12:07:23;5.05;;;2.10;;
35646;SDS011;28680;45.642;13.756;2022-12-07T12:10:02;3.15;;;2.25;;
35646;SDS011;28680;45.642;13.756;2022-12-07T12:13:20;2.25;;;1.90;;
35646;SDS011;28680;45.642;13.756;2022-12-07T12:16:02;3.00;;;2.00;;
35646;SDS011;28680;45.642;13.756;2022-12-07T12:19:00;3.63;;;2.08;;
35646;SDS011;28680;45.642;13.756;2022-12-07T12:21:40;2.20;;;1.63;;
35646;SDS011;28680;45.642;13.756;2022-12-07T12:24:12;4.38;;;2.28;;
35646;SDS011;28680;45.642;13.756;2022-12-07T12:26:52;5.47;;;2.40;;
35646;SDS011;28680;45.642;13.756;2022-12-07T12:29:33;4.35;;;2.40;;
35646;SDS011;28680;45.642;13.756;2022-12-07T12:32:12;3.38;;;2.08;;
35646;SDS011;28680;45.642;13.756;2022-12-07T12:35:00;3.63;;;2.10;;
35646;SDS011;28680;45.642;13.756;2022-12-07T12:37:56;3.38;;;2.05;;
35646;SDS011;28680;45.642;13.756;2022-12-07T12:40:58;3.42;;;1.95;;
35646;SDS011;28680;45.642;13.756;2022-12-07T12:43:45;2.78;;;2.00;;
35646;SDS011;28680;45.642;13.756;2022-12-07T12:48:57;3.83;;;1.63;;
35646;SDS011;28680;45.642;13.756;2022-12-07T12:51:49;2.60;;;1.92;;
35646;SDS011;28680;45.642;13.756;2022-12-07T12:54:21;2.83;;;1.70;;
35646;SDS011;28680;45.642;13.756;2022-12-07T13:05:00;2.40;;;1.63;;
35646;SDS011;28680;45.642;13.756;2022-12-07T13:15:43;4.10;;;1.90;;
35646;SDS011;28680;45.642;13.756;2022-12-07T13:20:53;2.33;;;1.60;;
35646;SDS011;28680;45.642;13.756;2022-12-07T13:29:20;3.47;;;2.35;;
35646;SDS011;28680;45.642;13.756;2022-12-07T13:32:01;2.30;;;1.80;;
35646;SDS011;28680;45.642;13.756;2022-12-07T13:34:29;3.08;;;1.80;;
35646;SDS011;28680;45.642;13.756;2022-12-07T13:37:10;2.85;;;1.95;;
35646;SDS011;28680;45.642;13.756;2022-12-07T13:39:44;2.80;;;1.70;;
35646;SDS011;28680;45.642;13.756;2022-12-07T13:44:55;2.63;;;1.90;;
35646;SDS011;28680;45.642;13.756;2022-12-07T13:50:23;3.17;;;2.03;;
35646;SDS011;28680;45.642;13.756;2022-12-07T13:52:55;4.35;;;1.70;;
35646;SDS011;28680;45.642;13.756;2022-12-07T13:55:26;2.45;;;1.70;;
35646;SDS011;28680;45.642;13.756;2022-12-07T13:57:54;3.53;;;2.22;;
35646;SDS011;28680;45.642;13.756;2022-12-07T14:00:21;2.70;;;2.10;;
35646;SDS011;28680;45.642;13.756;2022-12-07T14:05:37;3.88;;;1.80;;
35646;SDS011;28680;45.642;13.756;2022-12-07T14:10:55;4.40;;;2.20;;
35646;SDS011;28680;45.642;13.756;2022-12-07T14:13:39;3.28;;;1.80;;
35646;SDS011;28680;45.642;13.756;2022-12-07T14:16:28;2.13;;;1.50;;
35646;SDS011;28680;45.642;13.756;2022-12-07T14:19:05;2.72;;;1.85;;
35646;SDS011;28680;45.642;13.756;2022-12-07T14:22:08;3.97;;;1.42;;
35646;SDS011;28680;45.642;13.756;2022-12-07T14:24:50;2.40;;;1.77;;
35646;SDS011;28680;45.642;13.756;2022-12-07T14:27:24;4.13;;;1.90;;
35646;SDS011;28680;45.642;13.756;2022-12-07T14:29:56;2.47;;;1.67;;
35646;SDS011;28680;45.642;13.756;2022-12-07T14:32:24;3.92;;;2.10;;
35646;SDS011;28680;45.642;13.756;2022-12-07T14:35:08;2.60;;;1.90;;
35646;SDS011;28680;45.642;13.756;2022-12-07T14:37:37;3.67;;;2.28;;
35646;SDS011;28680;45.642;13.756;2022-12-07T14:40:05;3.92;;;2.10;;
35646;SDS011;28680;45.642;13.756;2022-12-07T14:42:32;3.08;;;1.83;;
35646;SDS011;28680;45.642;13.756;2022-12-07T14:44:59;3.92;;;2.00;;
35646;SDS011;28680;45.642;13.756;2022-12-07T14:47:25;2.83;;;1.85;;
35646;SDS011;28680;45.642;13.756;2022-12-07T14:49:52;2.40;;;1.52;;
35646;SDS011;28680;45.642;13.756;2022-12-07T14:52:24;2.75;;;1.90;;
35646;SDS011;28680;45.642;13.756;2022-12-07T14:54:55;3.10;;;2.03;;
35646;SDS011;28680;45.642;13.756;2022-12-07T14:57:21;3.25;;;2.20;;
35646;SDS011;28680;45.642;13.756;2022-12-07T14:59:47;4.82;;;2.10;;
35646;SDS011;28680;45.642;13.756;2022-12-07T15:02:14;2.92;;;1.92;;
35646;SDS011;28680;45.642;13.756;2022-12-07T15:04:40;2.80;;;1.83;;
35646;SDS011;28680;45.642;13.756;2022-12-07T15:07:10;2.65;;;1.70;;
35646;SDS011;28680;45.642;13.756;2022-12-07T15:09:45;4.72;;;2.17;;
35646;SDS011;28680;45.642;13.756;2022-12-07T15:12:11;5.43;;;2.10;;
35646;SDS011;28680;45.642;13.756;2022-12-07T15:14:37;4.47;;;2.20;;
35646;SDS011;28680;45.642;13.756;2022-12-07T15:17:04;2.05;;;1.73;;
35646;SDS011;28680;45.642;13.756;2022-12-07T15:19:30;3.30;;;2.17;;
35646;SDS011;28680;45.642;13.756;2022-12-07T15:21:56;3.55;;;2.22;;
35646;SDS011;28680;45.642;13.756;2022-12-07T15:24:24;3.65;;;2.25;;
35646;SDS011;28680;45.642;13.756;2022-12-07T15:26:51;4.55;;;2.40;;
35646;SDS011;28680;45.642;13.756;2022-12-07T15:29:18;2.65;;;1.95;;
35646;SDS011;28680;45.642;13.756;2022-12-07T15:31:44;3.70;;;2.33;;
35646;SDS011;28680;45.642;13.756;2022-12-07T15:34:10;2.63;;;1.92;;
35646;SDS011;28680;45.642;13.756;2022-12-07T15:36:36;5.10;;;2.50;;
35646;SDS011;28680;45.642;13.756;2022-12-07T15:39:02;3.50;;;2.28;;
35646;SDS011;28680;45.642;13.756;2022-12-07T15:41:31;3.05;;;2.25;;
35646;SDS011;28680;45.642;13.756;2022-12-07T15:43:57;4.15;;;2.35;;
35646;SDS011;28680;45.642;13.756;2022-12-07T15:46:41;6.32;;;2.08;;
35646;SDS011;28680;45.642;13.756;2022-12-07T15:49:17;3.40;;;2.15;;
35646;SDS011;28680;45.642;13.756;2022-12-07T15:51:44;3.20;;;2.35;;
35646;SDS011;28680;45.642;13.756;2022-12-07T15:54:21;4.05;;;2.60;;
35646;SDS011;28680;45.642;13.756;2022-12-07T15:56:57;5.25;;;2.40;;
35646;SDS011;28680;45.642;13.756;2022-12-07T15:59:26;3.35;;;2.20;;
35646;SDS011;28680;45.642;13.756;2022-12-07T16:01:53;4.97;;;2.78;;
35646;SDS011;28680;45.642;13.756;2022-12-07T16:04:38;3.92;;;2.28;;
35646;SDS011;28680;45.642;13.756;2022-12-07T16:07:04;4.13;;;2.45;;
35646;SDS011;28680;45.642;13.756;2022-12-07T16:09:42;2.47;;;2.05;;
35646;SDS011;28680;45.642;13.756;2022-12-07T16:12:12;3.95;;;2.40;;
35646;SDS011;28680;45.642;13.756;2022-12-07T16:14:57;3.45;;;2.28;;
35646;SDS011;28680;45.642;13.756;2022-12-07T16:17:24;4.75;;;2.40;;
35646;SDS011;28680;45.642;13.756;2022-12-07T16:19:50;6.10;;;4.10;;
35646;SDS011;28680;45.642;13.756;2022-12-07T16:22:16;4.07;;;2.75;;
35646;SDS011;28680;45.642;13.756;2022-12-07T16:24:48;5.78;;;2.40;;
35646;SDS011;28680;45.642;13.756;2022-12-07T16:27:13;6.63;;;3.03;;
35646;SDS011;28680;45.642;13.756;2022-12-07T16:29:39;6.15;;;2.78;;
35646;SDS011;28680;45.642;13.756;2022-12-07T16:32:05;5.40;;;2.50;;
35646;SDS011;28680;45.642;13.756;2022-12-07T16:34:31;3.72;;;2.38;;
35646;SDS011;28680;45.642;13.756;2022-12-07T16:36:57;4.80;;;2.80;;
35646;SDS011;28680;45.642;13.756;2022-12-07T16:39:23;6.38;;;2.88;;
35646;SDS011;28680;45.642;13.756;2022-12-07T16:41:49;5.22;;;3.05;;
35646;SDS011;28680;45.642;13.756;2022-12-07T16:44:15;4.82;;;2.90;;
35646;SDS011;28680;45.642;13.756;2022-12-07T16:46:41;4.68;;;2.97;;
35646;SDS011;28680;45.642;13.756;2022-12-07T16:49:11;4.63;;;2.92;;
35646;SDS011;28680;45.642;13.756;2022-12-07T16:51:39;7.85;;;3.42;;
35646;SDS011;28680;45.642;13.756;2022-12-07T16:54:08;4.30;;;2.70;;
35646;SDS011;28680;45.642;13.756;2022-12-07T16:56:37;5.95;;;3.15;;
35646;SDS011;28680;45.642;13.756;2022-12-07T16:59:04;6.38;;;3.08;;
35646;SDS011;28680;45.642;13.756;2022-12-07T17:01:30;5.63;;;3.15;;
35646;SDS011;28680;45.642;13.756;2022-12-07T17:03:56;6.70;;;3.08;;
35646;SDS011;28680;45.642;13.756;2022-12-07T17:06:27;4.80;;;3.20;;
35646;SDS011;28680;45.642;13.756;2022-12-07T17:08:54;4.18;;;2.72;;
35646;SDS011;28680;45.642;13.756;2022-12-07T17:11:22;4.47;;;3.03;;
35646;SDS011;28680;45.642;13.756;2022-12-07T17:13:52;4.40;;;3.10;;
35646;SDS011;28680;45.642;13.756;2022-12-07T17:16:37;4.78;;;2.90;;
35646;SDS011;28680;45.642;13.756;2022-12-07T17:19:04;5.53;;;2.63;;
35646;SDS011;28680;45.642;13.756;2022-12-07T17:21:34;5.88;;;3.20;;
35646;SDS011;28680;45.642;13.756;2022-12-07T17:24:01;7.22;;;3.20;;